Time;durP1;ratioP1;P1;durP2;ratioP2;P2;SDS_P1;SDS_P2;PMS_P1;PMS_P2;Temp;Humidity;BMP_temperature;BMP_pressure;BME280_temperature;BME280_humidity;BME280_pressure;Samples;Min_cycle;Max_cycle;Signal;HPM_P1;HPM_P2
2023/09/02 00:00:33;;;;;;;0.40;0.40;;;24.30;61.20;;;24.92;45.84;95127.97;5013507;28;20237;-30
2023/09/02 00:03:00;;;;;;;0.30;0.30;;;24.30;61.20;;;24.90;45.87;95132.81;5013965;28;20294;-29
2023/09/02 00:05:27;;;;;;;0.30;0.30;;;24.30;61.20;;;24.89;45.55;95126.66;5013304;28;20634;-30
2023/09/02 00:07:54;;;;;;;0.40;0.40;;;24.40;61.40;;;24.90;45.59;95124.75;5013184;28;20739;-30
2023/09/02 00:10:21;;;;;;;0.30;0.30;;;24.40;61.40;;;24.90;45.70;95132.81;5013303;28;20211;-31
2023/09/02 00:12:48;;;;;;;0.40;0.40;;;24.30;61.40;;;24.89;45.64;95125.84;5013230;28;20205;-30
2023/09/02 00:15:16;;;;;;;0.30;0.30;;;24.30;61.40;;;24.88;45.71;95127.72;5012461;28;20706;-29
2023/09/02 00:17:43;;;;;;;0.30;0.30;;;24.30;61.40;;;24.88;45.85;95133.09;5012958;28;20333;-30
2023/09/02 00:20:11;;;;;;;0.25;0.25;;;24.30;61.40;;;24.87;45.61;95128.03;5013167;28;20287;-29
2023/09/02 00:22:38;;;;;;;0.50;0.50;;;24.30;61.40;;;24.86;46.27;95131.78;5013376;28;20226;-29
2023/09/02 00:25:06;;;;;;;0.30;0.30;;;24.30;61.40;;;24.85;45.79;95127.47;5013285;28;20206;-31
2023/09/02 00:27:33;;;;;;;0.30;0.30;;;24.30;61.40;;;24.84;45.95;95123.19;5012833;28;20317;-29
2023/09/02 00:30:00;;;;;;;0.30;0.30;;;24.30;61.40;;;24.82;45.67;95130.75;5028418;28;20232;-30
2023/09/02 00:32:28;;;;;;;0.40;0.40;;;24.30;61.40;;;24.79;45.94;95121.34;5012060;28;20205;-29
2023/09/02 00:34:56;;;;;;;0.20;0.20;;;24.30;61.40;;;24.75;45.61;95120.28;5012942;28;20273;-30
2023/09/02 00:37:23;;;;;;;0.40;0.40;;;24.30;61.30;;;24.74;45.97;95126.72;5011932;28;20222;-30
2023/09/02 00:39:51;;;;;;;0.32;0.32;;;24.20;61.40;;;24.73;45.63;95125.13;5011765;28;20263;-30
2023/09/02 00:42:22;;;;;;;0.38;0.38;;;24.20;61.50;;;24.70;46.02;95126.47;5012827;28;20233;-30
2023/09/02 00:44:49;;;;;;;0.30;0.30;;;24.20;61.40;;;24.68;46.03;95127.84;5011951;28;20268;-30
2023/09/02 00:47:16;;;;;;;0.20;0.20;;;24.20;61.40;;;24.65;45.86;95133.75;5012511;28;20218;-30
2023/09/02 00:49:43;;;;;;;0.30;0.30;;;24.20;61.40;;;24.63;45.88;95134.00;5011765;28;20540;-30
2023/09/02 00:52:10;;;;;;;0.30;0.30;;;24.20;61.50;;;24.60;46.16;95129.19;5028708;28;20194;-30
2023/09/02 00:54:37;;;;;;;0.30;0.30;;;24.10;61.40;;;24.58;46.10;95132.16;5028238;28;20202;-29
2023/09/02 00:57:06;;;;;;;0.30;0.30;;;24.10;61.50;;;24.57;46.09;95133.25;5027916;28;20606;-29
2023/09/02 00:59:34;;;;;;;0.30;0.30;;;24.10;61.50;;;24.56;46.21;95136.16;5028026;28;20278;-30
2023/09/02 01:02:04;;;;;;;0.60;0.60;;;24.00;61.50;;;24.56;46.35;95133.50;5012544;28;20344;-32
2023/09/02 01:04:33;;;;;;;0.40;0.40;;;24.00;61.50;;;24.55;46.35;95135.38;5012827;28;20642;-30
2023/09/02 01:07:02;;;;;;;0.30;0.30;;;24.00;61.60;;;24.57;46.23;95135.09;5012406;28;20663;-29
2023/09/02 01:09:31;;;;;;;0.40;0.40;;;24.00;61.70;;;24.55;46.13;95134.59;5012661;28;20574;-31
2023/09/02 01:11:58;;;;;;;0.30;0.30;;;24.10;61.70;;;24.55;46.26;95137.28;5012662;28;20245;-32
2023/09/02 01:14:26;;;;;;;0.30;0.30;;;24.00;61.60;;;24.54;46.43;95135.66;5012601;28;20569;-31
2023/09/02 01:16:53;;;;;;;0.35;0.35;;;24.00;61.70;;;24.53;46.31;95142.88;5012028;28;20239;-29
2023/09/02 01:19:22;;;;;;;0.32;0.32;;;24.00;61.60;;;24.53;46.37;95131.38;5012449;28;20198;-30
2023/09/02 01:22:32;;;;;;;0.32;0.32;;;24.00;61.70;;;24.52;46.36;95140.50;5028252;28;20244;-32
2023/09/02 01:25:18;;;;;;;0.32;0.32;;;24.00;61.70;;;24.51;46.43;95133.53;5011317;28;20220;-30
2023/09/02 01:28:21;;;;;;;0.30;0.30;;;24.00;61.70;;;24.49;46.51;95146.41;4994936;28;20219;-30
2023/09/02 01:30:54;;;;;;;0.30;0.30;;;24.00;61.70;;;24.51;46.53;95146.94;5010951;28;20224;-30
2023/09/02 01:33:25;;;;;;;0.30;0.30;;;24.00;61.70;;;24.50;46.46;95148.00;5012472;28;20209;-29
2023/09/02 01:35:57;;;;;;;0.40;0.40;;;24.00;61.80;;;24.50;46.47;95145.31;5027886;28;20262;-29
2023/09/02 01:38:27;;;;;;;0.45;0.45;;;24.00;61.80;;;24.49;46.35;95143.75;5011055;28;20229;-30
2023/09/02 01:40:56;;;;;;;0.40;0.40;;;24.00;61.70;;;24.48;46.48;95136.75;5011137;28;20654;-29
2023/09/02 01:43:24;;;;;;;0.40;0.40;;;24.00;61.80;;;24.48;46.56;95144.81;4997240;28;20690;-30
2023/09/02 01:45:52;;;;;;;0.30;0.30;;;24.00;61.80;;;24.46;46.44;95142.38;5014955;28;20574;-29
2023/09/02 01:48:20;;;;;;;0.40;0.40;;;24.00;61.80;;;24.46;46.47;95145.06;5015243;28;20224;-30
2023/09/02 01:50:47;;;;;;;0.30;0.30;;;24.00;61.90;;;24.45;46.58;95144.28;5015421;28;20202;-30
2023/09/02 01:53:15;;;;;;;0.30;0.30;;;24.00;61.80;;;24.45;46.49;95144.28;5015386;28;20194;-30
2023/09/02 01:55:44;;;;;;;0.50;0.50;;;24.00;62.80;;;24.43;46.58;95141.06;5030996;28;20508;-32
2023/09/02 01:58:11;;;;;;;0.30;0.30;;;23.90;61.80;;;24.44;46.70;95139.97;5014296;28;20213;-30
2023/09/02 02:00:39;;;;;;;0.40;0.40;;;23.90;61.80;;;24.44;46.49;95142.66;5014331;28;20585;-30
2023/09/02 02:03:24;;;;;;;0.35;0.35;;;24.00;61.90;;;24.44;46.66;95148.03;5015239;28;20216;-30
2023/09/02 02:05:53;;;;;;;0.30;0.30;;;24.00;62.00;;;24.43;46.80;95149.09;5030803;28;20268;-31
2023/09/02 02:08:32;;;;;;;0.35;0.35;;;23.90;61.90;;;24.42;46.89;95149.38;5014908;28;20213;-31
2023/09/02 02:11:01;;;;;;;0.30;0.30;;;23.90;61.90;;;24.40;46.48;95146.16;5015654;28;20195;-29
2023/09/02 02:13:29;;;;;;;0.40;0.40;;;23.90;61.90;;;24.41;46.67;95142.41;5014480;28;20645;-30
2023/09/02 02:15:57;;;;;;;0.32;0.32;;;24.00;62.00;;;24.40;46.82;95148.84;5014230;28;20185;-30
2023/09/02 02:18:24;;;;;;;0.30;0.30;;;23.90;61.90;;;24.39;46.65;95152.59;5014748;28;20230;-32
2023/09/02 02:21:02;;;;;;;0.45;0.45;;;23.90;61.90;;;24.36;46.68;95145.91;5015206;28;20194;-30
2023/09/02 02:23:31;;;;;;;0.40;0.40;;;23.90;62.00;;;24.35;46.67;95154.22;5015537;28;20200;-30
2023/09/02 02:26:02;;;;;;;0.30;0.30;;;23.90;62.00;;;24.33;46.79;95151.81;5013992;28;20250;-30
2023/09/02 02:28:30;;;;;;;0.60;0.60;;;23.90;62.00;;;24.32;46.34;95152.09;5013729;28;20606;-30
2023/09/02 02:31:01;;;;;;;0.30;0.30;;;23.90;61.90;;;24.29;46.94;95151.56;5030687;28;20716;-31
2023/09/02 02:33:28;;;;;;;0.30;0.30;;;23.90;62.00;;;24.27;46.71;95147.56;5014847;28;20591;-30
2023/09/02 02:35:55;;;;;;;0.30;0.30;;;23.80;61.90;;;24.27;46.93;95156.38;5014948;28;20584;-32
2023/09/02 02:38:22;;;;;;;0.30;0.30;;;23.80;62.80;;;24.25;46.78;95149.69;5013822;28;20212;-30
2023/09/02 02:40:50;;;;;;;0.40;0.40;;;23.80;61.90;;;24.25;46.85;95150.50;5014526;28;20234;-29
2023/09/02 02:43:17;;;;;;;0.30;0.30;;;23.80;62.00;;;24.24;46.75;95156.13;5013889;28;20296;-29
2023/09/02 02:45:44;;;;;;;0.32;0.32;;;23.80;62.10;;;24.23;46.82;95152.66;5015108;28;20209;-32
2023/09/02 02:48:15;;;;;;;0.35;0.35;;;23.80;62.00;;;24.25;46.83;95155.06;5014454;28;20214;-30
2023/09/02 02:50:44;;;;;;;0.40;0.40;;;23.80;62.10;;;24.26;47.05;95152.09;5014890;28;20204;-31
2023/09/02 02:53:12;;;;;;;0.30;0.30;;;23.80;62.20;;;24.27;47.05;95151.03;5013536;28;20744;-28
2023/09/02 02:55:41;;;;;;;0.40;0.40;;;23.80;62.20;;;24.28;46.92;95158.00;5012962;28;20203;-31
2023/09/02 02:58:09;;;;;;;0.35;0.35;;;23.80;62.10;;;24.27;47.28;95153.72;5013650;28;20656;-30
2023/09/02 03:00:36;;;;;;;0.30;0.30;;;23.80;62.10;;;24.29;46.86;95151.56;5014705;28;20512;-32
2023/09/02 03:03:04;;;;;;;0.40;0.40;;;23.80;62.10;;;24.33;47.17;95151.81;5014454;28;20200;-30
2023/09/02 03:05:40;;;;;;;0.40;0.40;;;23.90;62.20;;;24.34;46.98;95149.94;5013353;28;20244;-32
2023/09/02 03:08:10;;;;;;;0.47;0.47;;;23.90;62.20;;;24.32;46.96;95152.91;5014337;28;20218;-31
2023/09/02 03:10:37;;;;;;;0.30;0.30;;;23.90;62.20;;;24.32;47.00;95157.47;5014216;28;20255;-30
2023/09/02 03:13:05;;;;;;;0.40;0.40;;;23.90;62.10;;;24.30;47.01;95155.84;5014110;28;20233;-30
2023/09/02 03:15:34;;;;;;;0.30;0.30;;;23.90;62.10;;;24.28;47.08;95160.69;4981535;28;20210;-30
2023/09/02 03:18:02;;;;;;;0.30;0.30;;;23.90;62.10;;;24.26;47.14;95162.81;5012871;28;20238;-30
2023/09/02 03:20:32;;;;;;;0.50;0.50;;;23.90;62.10;;;24.25;47.02;95157.75;5013358;28;20209;-30
2023/09/02 03:23:00;;;;;;;0.30;0.30;;;23.80;62.00;;;24.24;47.12;95164.16;5013099;28;20213;-30
2023/09/02 03:25:30;;;;;;;0.50;0.50;;;23.80;62.00;;;24.21;47.02;95160.16;5013064;28;20224;-30
2023/09/02 03:28:00;;;;;;;0.30;0.30;;;23.80;62.00;;;24.20;47.09;95161.22;5012796;28;20221;-32
2023/09/02 03:30:27;;;;;;;0.30;0.30;;;23.80;62.00;;;24.18;47.15;95162.59;5013015;28;20226;-32
2023/09/02 03:32:54;;;;;;;0.40;0.40;;;23.80;62.10;;;24.20;47.17;95168.47;5013879;28;20214;-31
2023/09/02 03:35:21;;;;;;;0.30;0.30;;;23.80;62.10;;;24.20;47.27;95171.16;5014044;28;20199;-33
2023/09/02 03:37:48;;;;;;;0.35;0.35;;;23.80;62.10;;;24.21;46.98;95165.53;5012873;28;20206;-32
2023/09/02 03:40:15;;;;;;;0.40;0.40;;;23.70;62.20;;;24.22;47.06;95158.31;5012814;28;20190;-30
2023/09/02 03:42:42;;;;;;;0.30;0.30;;;23.70;62.10;;;24.22;47.18;95169.03;5012900;28;20248;-30
2023/09/02 03:45:09;;;;;;;0.40;0.40;;;23.80;62.20;;;24.23;47.07;95165.25;5013770;28;20234;-30
2023/09/02 03:47:37;;;;;;;0.47;0.47;;;23.80;62.20;;;24.23;47.02;95166.06;5013832;28;20217;-31
2023/09/02 03:50:07;;;;;;;0.35;0.35;;;23.80;62.10;;;24.24;47.17;95177.56;5012743;28;20293;-31
2023/09/02 03:52:34;;;;;;;0.30;0.30;;;23.80;62.10;;;24.23;46.99;95167.91;5012672;28;20198;-32
2023/09/02 03:55:03;;;;;;;0.30;0.30;;;23.80;62.10;;;24.24;47.24;95169.53;5013542;28;20189;-30
2023/09/02 03:57:31;;;;;;;0.40;0.40;;;23.80;62.10;;;24.24;47.22;95174.91;5012537;28;20202;-33
2023/09/02 03:59:59;;;;;;;0.30;0.30;;;23.80;62.10;;;24.24;47.12;95177.56;5013740;28;20561;-32
2023/09/02 04:02:28;;;;;;;0.55;0.55;;;23.80;62.10;;;24.23;47.08;95178.66;5012391;28;20195;-33
2023/09/02 04:04:56;;;;;;;0.40;0.40;;;23.80;62.10;;;24.20;47.16;95174.63;5012377;28;20603;-31
2023/09/02 04:07:23;;;;;;;0.40;0.40;;;23.80;62.00;;;24.18;47.27;95174.13;5012654;28;20532;-30
2023/09/02 04:09:51;;;;;;;0.50;0.50;;;23.80;62.10;;;24.17;47.31;95177.06;5012268;28;20636;-34
2023/09/02 04:12:18;;;;;;;0.30;0.30;;;23.80;62.10;;;24.14;47.17;95187.25;5013540;28;20209;-30
2023/09/02 04:14:45;;;;;;;0.40;0.40;;;23.70;62.00;;;24.12;47.11;95184.03;5013281;28;20190;-30
2023/09/02 04:17:12;;;;;;;0.40;0.40;;;23.70;62.10;;;24.08;47.36;95187.53;4995791;28;20327;-31
2023/09/02 04:19:41;;;;;;;0.30;0.30;;;23.70;62.10;;;24.07;47.34;95192.09;5013171;28;20193;-31
2023/09/02 04:22:09;;;;;;;0.40;0.40;;;23.70;62.10;;;24.07;47.34;95186.75;5028609;28;20234;-31
2023/09/02 04:24:37;;;;;;;0.40;0.40;;;23.70;62.20;;;24.07;47.22;95197.44;5012118;28;20701;-30
2023/09/02 04:27:04;;;;;;;0.40;0.40;;;23.70;62.20;;;24.09;47.48;95205.22;5012175;28;20226;-31
2023/09/02 04:29:32;;;;;;;0.30;0.30;;;23.70;62.30;;;24.10;47.55;95212.97;5011834;28;20717;-32
2023/09/02 04:32:00;;;;;;;0.30;0.30;;;23.70;62.40;;;24.11;47.39;95208.44;5012028;28;20289;-31
2023/09/02 04:34:28;;;;;;;0.30;0.30;;;23.70;62.20;;;24.08;47.08;95215.16;5012059;28;20207;-31
2023/09/02 04:36:55;;;;;;;0.40;0.40;;;23.70;62.00;;;24.04;47.07;95215.94;5012015;28;20220;-32
2023/09/02 04:39:23;;;;;;;0.45;0.45;;;23.70;61.90;;;23.98;47.18;95221.28;5012808;28;20194;-29
2023/09/02 04:41:50;;;;;;;0.40;0.40;;;23.70;61.80;;;23.93;47.00;95217.81;5012011;28;20640;-30
2023/09/02 04:44:17;;;;;;;0.40;0.40;;;23.70;61.80;;;23.92;47.22;95219.69;5012683;28;20228;-29
2023/09/02 04:46:44;;;;;;;0.30;0.30;;;23.70;62.90;;;23.91;47.14;95217.25;5011849;28;20202;-29
2023/09/02 04:49:12;;;;;;;0.30;0.30;;;23.60;62.00;;;23.93;47.12;95213.25;5011634;28;20248;-31
2023/09/02 04:51:39;;;;;;;0.30;0.30;;;23.60;62.10;;;23.95;47.38;95219.16;5012728;28;20272;-30
2023/09/02 04:54:06;;;;;;;0.30;0.30;;;23.60;62.20;;;23.96;47.32;95220.78;5012627;28;20550;-32
2023/09/02 04:56:34;;;;;;;0.30;0.30;;;23.60;62.30;;;23.98;47.45;95228.53;5011821;28;20230;-31
2023/09/02 04:59:01;;;;;;;0.40;0.40;;;23.60;62.30;;;23.95;47.54;95224.53;5011491;28;20223;-30
2023/09/02 05:01:29;;;;;;;0.30;0.30;;;23.60;62.30;;;23.92;47.48;95222.38;5011644;28;20220;-30
2023/09/02 05:03:58;;;;;;;0.40;0.40;;;23.60;62.30;;;23.91;47.71;95225.28;5012847;28;20268;-33
2023/09/02 05:06:26;;;;;;;0.40;0.40;;;23.60;62.30;;;23.91;47.56;95226.09;5011630;28;20286;-31
2023/09/02 05:08:56;;;;;;;0.40;0.40;;;23.60;62.40;;;23.92;47.62;95230.41;5011365;28;20229;-31
2023/09/02 05:11:28;;;;;;;0.40;0.40;;;23.60;62.40;;;23.95;47.69;95231.75;5011555;28;20198;-32
2023/09/02 05:13:55;;;;;;;0.40;0.40;;;23.60;62.40;;;23.96;47.54;95225.31;5012424;28;20200;-31
2023/09/02 05:16:22;;;;;;;0.30;0.30;;;23.60;62.50;;;23.98;47.69;95234.69;5011233;28;20262;-33
2023/09/02 05:18:49;;;;;;;0.30;0.30;;;23.60;62.40;;;24.01;47.73;95232.56;5011996;28;20216;-30
2023/09/02 05:21:16;;;;;;;0.40;0.40;;;23.60;62.50;;;24.03;47.79;95233.88;5012320;28;20270;-30
2023/09/02 05:23:45;;;;;;;0.40;0.40;;;23.60;62.50;;;24.04;47.64;95232.03;5011379;28;20591;-30
2023/09/02 05:26:12;;;;;;;0.40;0.40;;;23.70;62.50;;;24.05;47.61;95236.31;5011431;28;20203;-31
2023/09/02 05:28:39;;;;;;;0.30;0.30;;;23.70;62.50;;;24.06;47.65;95243.25;5011128;28;20228;-30
2023/09/02 05:31:07;;;;;;;0.30;0.30;;;23.70;62.50;;;24.05;47.72;95244.34;5011313;28;20225;-31
2023/09/02 05:33:34;;;;;;;0.38;0.38;;;23.70;62.50;;;24.04;47.80;95243.53;5012699;28;20279;-30
2023/09/02 05:36:01;;;;;;;0.32;0.32;;;23.70;62.50;;;24.05;47.79;95239.00;5027580;28;20686;-30
2023/09/02 05:38:28;;;;;;;0.40;0.40;;;23.70;62.50;;;24.04;47.75;95243.53;5012118;28;20207;-31
2023/09/02 05:40:55;;;;;;;0.30;0.30;;;23.70;62.60;;;24.06;47.83;95249.44;5012074;28;20232;-30
2023/09/02 05:43:24;;;;;;;0.30;0.30;;;23.70;62.60;;;24.08;47.85;95252.66;5012050;28;20214;-31
2023/09/02 05:45:52;;;;;;;0.30;0.30;;;23.70;62.60;;;24.08;48.19;95241.94;5012471;28;20197;-34
2023/09/02 05:48:19;;;;;;;0.38;0.38;;;23.70;62.60;;;24.10;47.88;95250.50;5011825;28;20305;-30
2023/09/02 05:50:46;;;;;;;0.38;0.38;;;23.70;62.60;;;24.11;47.78;95254.00;5012262;28;20219;-33
2023/09/02 05:53:13;;;;;;;0.32;0.32;;;23.70;62.60;;;24.13;47.96;95254.50;5011964;28;20194;-32
2023/09/02 05:55:40;;;;;;;0.30;0.30;;;23.80;62.60;;;24.14;47.93;95253.44;5011913;28;20200;-31
2023/09/02 05:58:08;;;;;;;0.45;0.45;;;23.80;62.60;;;24.18;47.72;95253.69;5027251;28;20235;-31
2023/09/02 06:00:36;;;;;;;0.40;0.40;;;23.80;62.60;;;24.19;48.02;95261.47;5011657;28;20191;-31
2023/09/02 06:03:03;;;;;;;0.30;0.30;;;23.80;62.60;;;24.22;47.82;95265.50;5011802;28;20295;-32
2023/09/02 06:05:30;;;;;;;0.30;0.30;;;23.90;62.70;;;24.22;47.97;95266.31;5012080;28;20547;-32
2023/09/02 06:07:58;;;;;;;0.30;0.30;;;23.90;62.60;;;24.24;48.20;95266.84;5011971;28;20207;-29
2023/09/02 06:10:25;;;;;;;0.30;0.30;;;23.90;62.70;;;24.26;47.99;95271.94;5011583;28;20292;-31
2023/09/02 06:12:52;;;;;;;0.40;0.40;;;23.90;62.60;;;24.28;47.93;95275.94;5011801;28;20227;-31
2023/09/02 06:15:19;;;;;;;0.32;0.32;;;24.00;62.80;;;24.29;47.90;95268.69;5011742;28;20212;-31
2023/09/02 06:17:46;;;;;;;0.40;0.40;;;24.00;62.80;;;24.33;47.94;95279.69;5011479;28;20253;-32
2023/09/02 06:20:16;;;;;;;0.40;0.40;;;24.00;62.80;;;24.33;48.03;95275.13;5011522;28;20194;-31
2023/09/02 06:22:43;;;;;;;0.40;0.40;;;24.00;62.80;;;24.36;47.85;95273.78;5026816;28;20252;-30
2023/09/02 06:25:10;;;;;;;0.60;0.60;;;24.00;62.70;;;24.35;47.89;95273.00;5011970;28;20245;-31
2023/09/02 06:27:37;;;;;;;0.40;0.40;;;24.10;62.80;;;24.37;48.05;95278.88;5012041;28;20236;-34
2023/09/02 06:30:05;;;;;;;0.30;0.30;;;24.00;62.60;;;24.39;48.01;95284.78;5013303;28;20219;-32
2023/09/02 06:32:33;;;;;;;0.50;0.50;;;24.00;62.70;;;24.40;47.93;95285.56;5015414;28;20223;-30
2023/09/02 06:35:00;;;;;;;0.40;0.40;;;24.10;62.80;;;24.40;48.14;95280.22;5015132;28;20200;-30
2023/09/02 06:37:28;;;;;;;0.40;0.40;;;24.10;62.80;;;24.42;48.05;95286.13;5013935;28;20302;-31
2023/09/02 06:39:57;;;;;;;0.30;0.30;;;24.10;62.70;;;24.42;47.77;95284.22;5014846;28;20252;-29
2023/09/02 06:42:24;;;;;;;0.30;0.30;;;24.10;62.70;;;24.43;47.77;95285.03;5014780;28;20294;-30
2023/09/02 06:44:54;;;;;;;0.40;0.40;;;24.10;62.70;;;24.44;48.01;95287.44;5014712;28;20205;-30
2023/09/02 06:47:21;;;;;;;0.40;0.40;;;24.10;62.70;;;24.47;47.80;95291.47;5015027;28;20599;-33
2023/09/02 06:49:49;;;;;;;0.30;0.30;;;24.10;62.70;;;24.47;47.97;95294.13;5014348;28;20241;-30
2023/09/02 06:52:16;;;;;;;0.30;0.30;;;24.10;62.70;;;24.49;48.07;95293.91;5014615;28;20287;-31
2023/09/02 06:54:48;;;;;;;0.47;0.47;;;24.10;62.60;;;24.49;48.04;95297.38;5014761;28;20281;-31
2023/09/02 06:57:15;;;;;;;0.30;0.30;;;24.10;62.70;;;24.50;47.91;95290.13;5029864;28;20186;-32
2023/09/02 06:59:43;;;;;;;0.30;0.30;;;24.20;62.70;;;24.52;48.10;95287.97;5014567;28;20221;-30
2023/09/02 07:02:10;;;;;;;0.28;0.28;;;24.20;62.70;;;24.53;48.06;95289.59;5014429;28;20226;-32
2023/09/02 07:04:37;;;;;;;0.35;0.35;;;24.20;62.70;;;24.54;47.77;95285.84;5014659;28;20291;-30
2023/09/02 07:07:04;;;;;;;0.30;0.30;;;24.20;62.70;;;24.55;48.05;95287.44;5030038;28;20253;-32
2023/09/02 07:09:31;;;;;;;0.30;0.30;;;24.20;62.80;;;24.57;47.98;95288.78;5013115;28;20326;-30
2023/09/02 07:11:58;;;;;;;0.32;0.32;;;24.20;62.70;;;24.60;48.09;95290.91;5014279;28;20206;-29
2023/09/02 07:14:25;;;;;;;0.40;0.40;;;24.20;62.70;;;24.60;47.99;95296.25;5014175;28;20249;-29
2023/09/02 07:16:52;;;;;;;0.40;0.40;;;24.30;62.80;;;24.61;47.88;95295.19;5014207;28;20310;-30
2023/09/02 07:19:19;;;;;;;0.30;0.30;;;24.30;62.80;;;24.62;47.98;95288.75;5014074;28;20229;-30
2023/09/02 07:21:47;;;;;;;0.40;0.40;;;24.30;62.80;;;24.64;47.87;95295.72;5014322;28;20647;-30
2023/09/02 07:24:14;;;;;;;0.30;0.30;;;24.30;62.80;;;24.66;47.89;95299.78;5014081;28;20303;-32
2023/09/02 07:26:41;;;;;;;0.40;0.40;;;24.30;62.80;;;24.67;48.18;95298.72;5014055;28;20228;-30
2023/09/02 07:29:08;;;;;;;0.50;0.50;;;24.30;62.90;;;24.68;48.20;95299.50;5013746;28;20258;-33
2023/09/02 07:31:36;;;;;;;0.50;0.50;;;24.30;62.80;;;24.68;48.07;95297.63;5013995;28;20206;-31
2023/09/02 07:34:03;;;;;;;0.30;0.30;;;24.40;62.90;;;24.71;48.24;95301.66;5014450;28;20207;-31
2023/09/02 07:36:30;;;;;;;0.30;0.30;;;24.40;62.90;;;24.71;48.05;95302.44;5013950;28;20235;-29
2023/09/02 07:38:57;;;;;;;0.30;0.30;;;24.40;62.90;;;24.70;48.05;95292.78;5013716;28;20200;-30
2023/09/02 07:41:24;;;;;;;0.28;0.28;;;24.40;63.00;;;24.73;48.10;95310.22;5028902;28;20511;-29
2023/09/02 07:43:51;;;;;;;0.30;0.30;;;24.40;63.00;;;24.74;48.26;95306.47;5013781;28;20281;-29
2023/09/02 07:46:18;;;;;;;0.30;0.30;;;24.40;63.10;;;24.76;48.07;95307.00;5013637;28;20197;-31
2023/09/02 07:48:49;;;;;;;0.30;0.30;;;24.40;63.10;;;24.77;48.29;95311.28;5014013;28;20246;-30
2023/09/02 07:51:17;;;;;;;0.38;0.38;;;24.40;63.10;;;24.81;48.17;95314.22;5014023;28;20260;-33
2023/09/02 07:53:45;;;;;;;0.40;0.40;;;24.40;63.10;;;24.82;48.54;95307.78;5012679;28;20655;-30
2023/09/02 07:56:13;;;;;;;0.50;0.50;;;24.40;63.10;;;24.83;48.44;95326.31;5013606;28;20256;-31
2023/09/02 07:58:42;;;;;;;0.30;0.30;;;24.50;63.30;;;24.84;48.38;95311.00;5013831;28;20226;-29
2023/09/02 08:01:09;;;;;;;0.40;0.40;;;24.50;63.40;;;24.87;48.75;95315.81;5013945;28;20210;-29
2023/09/02 08:03:37;;;;;;;0.40;0.40;;;24.50;63.40;;;24.88;48.49;95317.44;5013403;28;20208;-29
2023/09/02 08:06:08;;;;;;;0.30;0.30;;;24.50;63.40;;;24.89;48.73;95319.84;5013472;28;20200;-30
2023/09/02 08:08:36;;;;;;;0.30;0.30;;;24.50;63.50;;;24.91;48.48;95311.50;5013407;28;20279;-40
2023/09/02 08:11:05;;;;;;;0.30;0.30;;;24.50;63.50;;;24.92;48.50;95311.22;5013673;28;20182;-31
2023/09/02 08:13:33;;;;;;;0.40;0.40;;;24.60;63.50;;;24.95;48.71;95323.31;5012479;28;20208;-30
2023/09/02 08:16:05;;;;;;;0.50;0.50;;;24.60;63.50;;;24.96;48.82;95316.84;5013320;28;20196;-32
2023/09/02 08:18:33;;;;;;;0.57;0.57;;;24.60;64.40;;;24.99;48.51;95326.25;5013179;28;20243;-30
2023/09/02 08:21:06;;;;;;;0.40;0.40;;;24.60;63.50;;;25.00;48.95;95317.13;5012771;28;20203;-34
2023/09/02 08:23:33;;;;;;;0.30;0.30;;;24.60;63.60;;;25.02;48.90;95317.66;5001600;28;20272;-29
2023/09/02 08:26:09;;;;;;;0.43;0.43;;;24.70;63.70;;;25.04;48.90;95324.34;5006265;28;20645;-29
2023/09/02 08:28:36;;;;;;;0.35;0.35;;;24.70;63.70;;;25.04;48.84;95324.34;4993289;28;20208;-32
2023/09/02 08:31:03;;;;;;;0.30;0.30;;;24.70;63.70;;;25.07;48.85;95315.75;4993298;28;20197;-29
2023/09/02 08:33:31;;;;;;;0.30;0.30;;;24.70;63.70;;;25.10;48.98;95330.50;5076674;28;20196;-30
2023/09/02 08:35:58;;;;;;;0.30;0.30;;;24.70;64.70;;;25.13;48.93;95331.84;4993430;28;20228;-32
2023/09/02 08:38:25;;;;;;;0.40;0.40;;;24.80;64.70;;;25.14;48.86;95331.56;5077827;28;20203;-32
2023/09/02 08:40:53;;;;;;;0.40;0.40;;;24.80;63.70;;;25.17;49.05;95332.88;4994158;28;20204;-31
2023/09/02 08:43:21;;;;;;;0.40;0.40;;;24.80;63.70;;;25.18;48.84;95334.50;5077395;28;20197;-30
2023/09/02 08:45:53;;;;;;;0.43;0.43;;;24.80;63.80;;;25.21;48.70;95331.28;4992630;28;20195;-30
2023/09/02 08:48:23;;;;;;;0.30;0.30;;;24.90;64.70;;;25.22;48.74;95333.69;4993607;28;20529;-29
2023/09/02 08:50:55;;;;;;;0.30;0.30;;;24.90;63.70;;;25.26;48.57;95325.88;4992958;28;20828;-30
2023/09/02 08:53:25;;;;;;;0.30;0.30;;;24.90;63.60;;;25.28;48.76;95328.28;5066783;28;20205;-30
2023/09/02 08:55:53;;;;;;;0.30;0.30;;;24.90;63.60;;;25.29;48.75;95330.69;5095434;28;20233;-30
2023/09/02 08:58:20;;;;;;;0.30;0.30;;;24.90;63.60;;;25.34;48.65;95329.88;5094440;28;20603;-29
2023/09/02 09:00:48;;;;;;;0.30;0.30;;;24.90;63.60;;;25.34;48.52;95333.38;5087080;28;20232;-30
2023/09/02 09:03:19;;;;;;;0.35;0.35;;;25.00;63.70;;;25.37;48.68;95332.84;4994272;28;20205;-30
2023/09/02 09:05:48;;;;;;;0.50;0.50;;;25.00;63.60;;;25.40;48.83;95331.47;5006561;28;20201;-30
2023/09/02 09:08:16;;;;;;;0.30;0.30;;;25.00;63.70;;;25.42;48.45;95335.50;4993170;28;20204;-30
2023/09/02 09:10:44;;;;;;;0.30;0.30;;;25.00;63.70;;;25.44;48.49;95332.56;4992900;28;20757;-29
2023/09/02 09:13:13;;;;;;;0.60;0.60;;;25.00;63.60;;;25.48;48.94;95338.19;4993147;28;20210;-30
2023/09/02 09:15:41;;;;;;;0.47;0.47;;;25.00;63.60;;;25.50;48.75;95342.19;5076547;28;20642;-30
2023/09/02 09:18:11;;;;;;;0.40;0.40;;;25.10;63.60;;;25.51;48.76;95333.06;5076239;28;20581;-31
2023/09/02 09:20:39;;;;;;;0.35;0.35;;;25.10;63.60;;;25.55;48.70;95344.06;4991864;28;20207;-32
2023/09/02 09:23:09;;;;;;;0.30;0.30;;;25.10;64.50;;;25.56;48.39;95343.78;5006973;28;20299;-30
2023/09/02 09:25:37;;;;;;;0.30;0.30;;;25.20;63.60;;;25.58;48.67;95346.16;5012265;28;20193;-30
2023/09/02 09:28:12;;;;;;;0.50;0.50;;;25.20;63.60;;;25.61;48.50;95347.50;4995345;28;20270;-30
2023/09/02 09:30:39;;;;;;;0.30;0.30;;;25.20;63.60;;;25.61;48.66;95342.94;5012178;28;20282;-29
2023/09/02 09:33:07;;;;;;;0.30;0.30;;;25.20;63.60;;;25.64;48.43;95345.06;4994909;28;20202;-30
2023/09/02 09:35:35;;;;;;;0.30;0.30;;;25.20;63.50;;;25.66;48.72;95342.09;4993316;28;20226;-31
2023/09/02 09:38:03;;;;;;;0.30;0.30;;;25.20;63.50;;;25.69;48.66;95352.28;4992827;28;20201;-30
2023/09/02 09:40:32;;;;;;;0.30;0.30;;;25.30;63.60;;;25.71;48.46;95347.47;4992598;28;20232;-31
2023/09/02 09:43:02;;;;;;;0.30;0.30;;;25.30;63.50;;;25.72;48.70;95347.16;4991922;28;20227;-30
2023/09/02 09:45:29;;;;;;;0.40;0.40;;;25.30;63.50;;;25.74;48.42;95346.88;4993541;28;20286;-30
2023/09/02 09:48:09;;;;;;;0.30;0.30;;;25.30;63.50;;;25.78;48.73;95356.00;5081578;28;20642;-31
2023/09/02 09:50:36;;;;;;;0.40;0.40;;;25.30;63.40;;;25.79;48.58;95348.75;4994281;28;20234;-30
2023/09/02 09:53:09;;;;;;;0.30;0.30;;;25.40;63.50;;;25.81;48.31;95358.13;5011523;28;20213;-31
2023/09/02 09:55:37;;;;;;;0.25;0.25;;;25.40;63.50;;;25.84;48.46;95351.41;5012478;28;20190;-30
2023/09/02 09:58:05;;;;;;;0.30;0.30;;;25.40;63.50;;;25.85;48.44;95359.19;5011862;28;20237;-29
2023/09/02 10:00:32;;;;;;;0.40;0.40;;;25.40;63.50;;;25.88;48.38;95344.41;5005362;28;20267;-30
2023/09/02 10:03:00;;;;;;;0.30;0.30;;;25.40;63.40;;;25.91;48.46;95343.81;5001327;28;20203;-30
2023/09/02 10:05:33;;;;;;;0.35;0.35;;;25.40;63.40;;;25.93;48.11;95346.22;5008642;28;20195;-30
2023/09/02 10:08:05;;;;;;;0.30;0.30;;;25.40;63.40;;;25.95;48.27;95350.28;5014285;28;20201;-29
2023/09/02 10:10:38;;;;;;;0.30;0.30;;;25.50;63.40;;;25.97;48.36;95344.59;5008688;28;20237;-30
2023/09/02 10:13:05;;;;;;;0.30;0.30;;;25.50;63.30;;;25.99;47.94;95347.81;4998809;28;20285;-30
2023/09/02 10:15:33;;;;;;;0.30;0.30;;;25.60;63.30;;;26.02;48.11;95344.56;5015141;28;20231;-32
2023/09/02 10:18:03;;;;;;;0.30;0.30;;;25.60;63.30;;;26.04;48.03;95345.09;5004418;28;20240;-31
2023/09/02 10:20:34;;;;;;;0.40;0.40;;;25.50;63.20;;;26.05;47.64;95344.81;5011325;28;20190;-30
2023/09/02 10:23:09;;;;;;;0.30;0.30;;;25.50;63.10;;;26.06;48.05;95348.28;5013139;28;20202;-33
2023/09/02 10:26:08;;;;;;;0.30;0.30;;;25.60;63.00;;;26.07;47.89;95343.75;5013548;28;20203;-32